sensor_id;sensor_type;location;lat;lon;timestamp;temperature;humidity
16198;DHT22;8206;51.440;6.914;2022-12-18T00:02:18;-5.10;99.90
16198;DHT22;8206;51.440;6.914;2022-12-18T00:04:45;-5.10;99.90
16198;DHT22;8206;51.440;6.914;2022-12-18T00:07:11;-5.10;99.90
16198;DHT22;8206;51.440;6.914;2022-12-18T00:09:38;-5.10;99.90
16198;DHT22;8206;51.440;6.914;2022-12-18T00:12:05;-5.10;99.90
16198;DHT22;8206;51.440;6.914;2022-12-18T00:14:32;-5.10;99.90
16198;DHT22;8206;51.440;6.914;2022-12-18T00:17:00;-5.10;99.90
16198;DHT22;8206;51.440;6.914;2022-12-18T00:19:27;-5.10;99.90
16198;DHT22;8206;51.440;6.914;2022-12-18T00:21:54;-5.00;99.90
16198;DHT22;8206;51.440;6.914;2022-12-18T00:24:20;-5.00;99.90
16198;DHT22;8206;51.440;6.914;2022-12-18T00:26:47;-4.90;99.90
16198;DHT22;8206;51.440;6.914;2022-12-18T00:29:14;-4.90;99.90
16198;DHT22;8206;51.440;6.914;2022-12-18T00:31:42;-4.90;99.90
16198;DHT22;8206;51.440;6.914;2022-12-18T00:34:11;-4.90;99.90
16198;DHT22;8206;51.440;6.914;2022-12-18T00:36:39;-4.90;99.90
16198;DHT22;8206;51.440;6.914;2022-12-18T00:39:06;-4.80;99.90
16198;DHT22;8206;51.440;6.914;2022-12-18T00:41:33;-4.80;99.90
16198;DHT22;8206;51.440;6.914;2022-12-18T00:44:18;-4.80;99.90
16198;DHT22;8206;51.440;6.914;2022-12-18T00:46:46;-4.80;99.90
16198;DHT22;8206;51.440;6.914;2022-12-18T00:49:15;-4.80;99.90
16198;DHT22;8206;51.440;6.914;2022-12-18T00:51:42;-4.90;99.90
16198;DHT22;8206;51.440;6.914;2022-12-18T00:54:09;-4.80;99.90
16198;DHT22;8206;51.440;6.914;2022-12-18T00:56:36;-4.80;99.90
16198;DHT22;8206;51.440;6.914;2022-12-18T00:59:03;-4.80;99.90
16198;DHT22;8206;51.440;6.914;2022-12-18T01:01:30;-4.90;99.90
16198;DHT22;8206;51.440;6.914;2022-12-18T01:03:58;-4.90;99.90
16198;DHT22;8206;51.440;6.914;2022-12-18T01:06:26;-4.80;99.90
16198;DHT22;8206;51.440;6.914;2022-12-18T01:08:53;-4.70;99.90
16198;DHT22;8206;51.440;6.914;2022-12-18T01:11:21;-4.70;99.90
16198;DHT22;8206;51.440;6.914;2022-12-18T01:13:48;-4.60;99.90
16198;DHT22;8206;51.440;6.914;2022-12-18T01:16:16;-4.50;99.90
16198;DHT22;8206;51.440;6.914;2022-12-18T01:18:44;-4.50;99.90
16198;DHT22;8206;51.440;6.914;2022-12-18T01:21:16;-4.40;99.90
16198;DHT22;8206;51.440;6.914;2022-12-18T01:23:51;-4.40;99.90
16198;DHT22;8206;51.440;6.914;2022-12-18T01:26:17;-4.40;99.90
16198;DHT22;8206;51.440;6.914;2022-12-18T01:28:44;-4.30;99.90
16198;DHT22;8206;51.440;6.914;2022-12-18T01:31:16;-4.30;99.90
16198;DHT22;8206;51.440;6.914;2022-12-18T01:33:44;-4.30;99.90
16198;DHT22;8206;51.440;6.914;2022-12-18T01:36:18;-4.30;99.90
16198;DHT22;8206;51.440;6.914;2022-12-18T01:38:45;-4.10;99.90
16198;DHT22;8206;51.440;6.914;2022-12-18T01:41:14;-4.00;99.90
16198;DHT22;8206;51.440;6.914;2022-12-18T01:43:48;-4.00;99.90
16198;DHT22;8206;51.440;6.914;2022-12-18T01:46:16;-4.00;99.90
16198;DHT22;8206;51.440;6.914;2022-12-18T01:48:44;-4.10;99.90
16198;DHT22;8206;51.440;6.914;2022-12-18T01:51:12;-4.00;99.90
16198;DHT22;8206;51.440;6.914;2022-12-18T01:53:40;-3.90;99.90
16198;DHT22;8206;51.440;6.914;2022-12-18T01:56:07;-3.90;99.90
16198;DHT22;8206;51.440;6.914;2022-12-18T01:58:41;-3.90;99.90
16198;DHT22;8206;51.440;6.914;2022-12-18T02:01:10;-3.90;99.90
16198;DHT22;8206;51.440;6.914;2022-12-18T02:03:37;-3.90;99.90
16198;DHT22;8206;51.440;6.914;2022-12-18T02:06:11;-3.80;99.90
16198;DHT22;8206;51.440;6.914;2022-12-18T02:08:45;-3.80;99.90
16198;DHT22;8206;51.440;6.914;2022-12-18T02:11:20;-3.80;99.90
16198;DHT22;8206;51.440;6.914;2022-12-18T02:13:57;-3.90;99.90
16198;DHT22;8206;51.440;6.914;2022-12-18T02:16:29;-3.90;99.90
16198;DHT22;8206;51.440;6.914;2022-12-18T02:19:01;-3.90;99.90
16198;DHT22;8206;51.440;6.914;2022-12-18T02:21:45;-3.90;99.90
16198;DHT22;8206;51.440;6.914;2022-12-18T02:24:21;-3.90;99.90
16198;DHT22;8206;51.440;6.914;2022-12-18T02:26:56;-3.90;99.90
16198;DHT22;8206;51.440;6.914;2022-12-18T02:29:26;-3.90;99.90
16198;DHT22;8206;51.440;6.914;2022-12-18T02:31:56;-3.90;99.90
16198;DHT22;8206;51.440;6.914;2022-12-18T02:34:31;-3.80;99.90
16198;DHT22;8206;51.440;6.914;2022-12-18T02:37:02;-3.70;99.90
16198;DHT22;8206;51.440;6.914;2022-12-18T02:39:32;-3.60;99.90
16198;DHT22;8206;51.440;6.914;2022-12-18T02:42:01;-3.60;99.90
16198;DHT22;8206;51.440;6.914;2022-12-18T02:44:33;-3.60;99.90
16198;DHT22;8206;51.440;6.914;2022-12-18T02:47:00;-3.70;99.90
16198;DHT22;8206;51.440;6.914;2022-12-18T02:49:32;-3.70;99.90
16198;DHT22;8206;51.440;6.914;2022-12-18T02:52:05;-3.70;99.90
16198;DHT22;8206;51.440;6.914;2022-12-18T02:54:50;-3.70;99.90
16198;DHT22;8206;51.440;6.914;2022-12-18T02:57:24;-3.60;99.90
16198;DHT22;8206;51.440;6.914;2022-12-18T03:00:00;-3.70;99.90
16198;DHT22;8206;51.440;6.914;2022-12-18T03:02:33;-3.60;99.90
16198;DHT22;8206;51.440;6.914;2022-12-18T03:05:07;-3.60;99.90
16198;DHT22;8206;51.440;6.914;2022-12-18T03:07:38;-3.60;99.90
16198;DHT22;8206;51.440;6.914;2022-12-18T03:10:09;-3.60;99.90
16198;DHT22;8206;51.440;6.914;2022-12-18T03:12:42;-3.60;99.90
16198;DHT22;8206;51.440;6.914;2022-12-18T03:15:14;-3.60;99.90
16198;DHT22;8206;51.440;6.914;2022-12-18T03:17:46;-3.70;99.90
16198;DHT22;8206;51.440;6.914;2022-12-18T03:20:18;-3.70;99.90
16198;DHT22;8206;51.440;6.914;2022-12-18T03:22:48;-3.60;99.90
16198;DHT22;8206;51.440;6.914;2022-12-18T03:25:17;-3.60;99.90
16198;DHT22;8206;51.440;6.914;2022-12-18T03:27:49;-3.50;99.90
16198;DHT22;8206;51.440;6.914;2022-12-18T03:30:18;-3.50;99.90
16198;DHT22;8206;51.440;6.914;2022-12-18T03:32:48;-3.60;99.90
16198;DHT22;8206;51.440;6.914;2022-12-18T03:35:23;-3.60;99.90
16198;DHT22;8206;51.440;6.914;2022-12-18T03:37:52;-3.60;99.90
16198;DHT22;8206;51.440;6.914;2022-12-18T03:40:21;-3.60;99.90
16198;DHT22;8206;51.440;6.914;2022-12-18T03:42:59;-3.60;99.90
16198;DHT22;8206;51.440;6.914;2022-12-18T03:45:34;-3.60;99.90
16198;DHT22;8206;51.440;6.914;2022-12-18T03:48:05;-3.70;99.90
16198;DHT22;8206;51.440;6.914;2022-12-18T03:50:38;-3.70;99.90
16198;DHT22;8206;51.440;6.914;2022-12-18T03:53:17;-3.70;99.90
16198;DHT22;8206;51.440;6.914;2022-12-18T03:55:47;-3.70;99.90
16198;DHT22;8206;51.440;6.914;2022-12-18T03:58:20;-3.70;99.90
16198;DHT22;8206;51.440;6.914;2022-12-18T04:00:48;-3.70;99.90
16198;DHT22;8206;51.440;6.914;2022-12-18T04:03:18;-3.70;99.90
16198;DHT22;8206;51.440;6.914;2022-12-18T04:05:48;-3.70;99.90
16198;DHT22;8206;51.440;6.914;2022-12-18T04:08:17;-3.70;99.90
16198;DHT22;8206;51.440;6.914;2022-12-18T04:10:44;-3.70;99.90
16198;DHT22;8206;51.440;6.914;2022-12-18T04:13:11;-3.60;99.90
16198;DHT22;8206;51.440;6.914;2022-12-18T04:15:39;-3.60;99.90
16198;DHT22;8206;51.440;6.914;2022-12-18T04:18:08;-3.70;99.90
16198;DHT22;8206;51.440;6.914;2022-12-18T04:20:34;-3.60;99.90
16198;DHT22;8206;51.440;6.914;2022-12-18T04:23:01;-3.60;99.90
16198;DHT22;8206;51.440;6.914;2022-12-18T04:25:28;-3.60;99.90
16198;DHT22;8206;51.440;6.914;2022-12-18T04:27:54;-3.60;99.90
16198;DHT22;8206;51.440;6.914;2022-12-18T04:30:21;-3.70;99.90
16198;DHT22;8206;51.440;6.914;2022-12-18T04:32:49;-3.60;99.90
16198;DHT22;8206;51.440;6.914;2022-12-18T04:35:16;-3.60;99.90
16198;DHT22;8206;51.440;6.914;2022-12-18T04:37:43;-3.70;99.90
16198;DHT22;8206;51.440;6.914;2022-12-18T04:40:11;-3.90;99.90
16198;DHT22;8206;51.440;6.914;2022-12-18T04:42:38;-4.00;99.90
16198;DHT22;8206;51.440;6.914;2022-12-18T04:45:06;-4.10;99.90
16198;DHT22;8206;51.440;6.914;2022-12-18T04:47:33;-4.30;99.90
16198;DHT22;8206;51.440;6.914;2022-12-18T04:50:02;-4.40;99.90
16198;DHT22;8206;51.440;6.914;2022-12-18T04:52:31;-4.50;99.90
16198;DHT22;8206;51.440;6.914;2022-12-18T04:54:58;-4.60;99.90
16198;DHT22;8206;51.440;6.914;2022-12-18T04:57:25;-4.70;99.90
16198;DHT22;8206;51.440;6.914;2022-12-18T04:59:51;-4.80;99.90
16198;DHT22;8206;51.440;6.914;2022-12-18T05:02:18;-4.90;99.90
16198;DHT22;8206;51.440;6.914;2022-12-18T05:04:45;-5.00;99.90
16198;DHT22;8206;51.440;6.914;2022-12-18T05:07:13;-5.10;99.90
16198;DHT22;8206;51.440;6.914;2022-12-18T05:09:40;-5.20;99.90
16198;DHT22;8206;51.440;6.914;2022-12-18T05:12:07;-5.20;99.90
16198;DHT22;8206;51.440;6.914;2022-12-18T05:14:33;-5.30;99.90
16198;DHT22;8206;51.440;6.914;2022-12-18T05:17:00;-5.40;99.90
16198;DHT22;8206;51.440;6.914;2022-12-18T05:19:27;-5.40;99.90
16198;DHT22;8206;51.440;6.914;2022-12-18T05:21:53;-5.50;99.90
16198;DHT22;8206;51.440;6.914;2022-12-18T05:24:21;-5.60;99.90
16198;DHT22;8206;51.440;6.914;2022-12-18T05:26:48;-5.60;99.90
16198;DHT22;8206;51.440;6.914;2022-12-18T05:29:15;-5.60;99.90
16198;DHT22;8206;51.440;6.914;2022-12-18T05:31:42;-5.70;99.90
16198;DHT22;8206;51.440;6.914;2022-12-18T05:34:09;-5.70;99.90
16198;DHT22;8206;51.440;6.914;2022-12-18T05:36:35;-5.80;99.90
16198;DHT22;8206;51.440;6.914;2022-12-18T05:39:02;-5.80;99.90
16198;DHT22;8206;51.440;6.914;2022-12-18T05:41:30;-5.90;99.90
16198;DHT22;8206;51.440;6.914;2022-12-18T05:43:58;-5.80;99.90
16198;DHT22;8206;51.440;6.914;2022-12-18T05:46:25;-5.90;99.90
16198;DHT22;8206;51.440;6.914;2022-12-18T05:48:52;-5.90;99.90
16198;DHT22;8206;51.440;6.914;2022-12-18T05:51:20;-5.90;99.90
16198;DHT22;8206;51.440;6.914;2022-12-18T05:53:48;-6.00;99.90
16198;DHT22;8206;51.440;6.914;2022-12-18T05:56:16;-6.00;99.90
16198;DHT22;8206;51.440;6.914;2022-12-18T05:58:45;-6.00;99.90
16198;DHT22;8206;51.440;6.914;2022-12-18T06:01:14;-6.10;99.90
16198;DHT22;8206;51.440;6.914;2022-12-18T06:03:42;-6.20;99.90
16198;DHT22;8206;51.440;6.914;2022-12-18T06:06:20;-6.20;99.90
16198;DHT22;8206;51.440;6.914;2022-12-18T06:08:48;-6.20;99.90
16198;DHT22;8206;51.440;6.914;2022-12-18T06:11:17;-6.20;99.90
16198;DHT22;8206;51.440;6.914;2022-12-18T06:13:46;-6.20;99.90
16198;DHT22;8206;51.440;6.914;2022-12-18T06:16:13;-6.30;99.90
16198;DHT22;8206;51.440;6.914;2022-12-18T06:18:39;-6.30;99.90
16198;DHT22;8206;51.440;6.914;2022-12-18T06:21:06;-6.30;99.90
16198;DHT22;8206;51.440;6.914;2022-12-18T06:23:33;-6.30;99.90
16198;DHT22;8206;51.440;6.914;2022-12-18T06:26:03;-6.30;99.90
16198;DHT22;8206;51.440;6.914;2022-12-18T06:28:30;-6.20;99.90
16198;DHT22;8206;51.440;6.914;2022-12-18T06:30:58;-6.30;99.90
16198;DHT22;8206;51.440;6.914;2022-12-18T06:33:26;-6.30;99.90
16198;DHT22;8206;51.440;6.914;2022-12-18T06:35:54;-6.30;99.90
16198;DHT22;8206;51.440;6.914;2022-12-18T06:38:21;-6.40;99.90
16198;DHT22;8206;51.440;6.914;2022-12-18T06:40:47;-6.40;99.90
16198;DHT22;8206;51.440;6.914;2022-12-18T06:43:14;-6.40;99.90
16198;DHT22;8206;51.440;6.914;2022-12-18T06:45:41;-6.30;99.90
16198;DHT22;8206;51.440;6.914;2022-12-18T06:48:09;-6.20;99.90
16198;DHT22;8206;51.440;6.914;2022-12-18T06:50:35;-6.20;99.90
16198;DHT22;8206;51.440;6.914;2022-12-18T06:53:02;-6.20;99.90
16198;DHT22;8206;51.440;6.914;2022-12-18T06:55:29;-6.20;99.90
16198;DHT22;8206;51.440;6.914;2022-12-18T06:57:56;-6.20;99.90
16198;DHT22;8206;51.440;6.914;2022-12-18T07:00:23;-6.30;99.90
16198;DHT22;8206;51.440;6.914;2022-12-18T07:02:50;-6.30;99.90
16198;DHT22;8206;51.440;6.914;2022-12-18T07:05:18;-6.40;99.90
16198;DHT22;8206;51.440;6.914;2022-12-18T07:07:44;-6.40;99.90
16198;DHT22;8206;51.440;6.914;2022-12-18T07:10:11;-6.40;99.90
16198;DHT22;8206;51.440;6.914;2022-12-18T07:12:38;-6.40;99.90
16198;DHT22;8206;51.440;6.914;2022-12-18T07:15:06;-6.40;99.90
16198;DHT22;8206;51.440;6.914;2022-12-18T07:17:33;-6.40;99.90
16198;DHT22;8206;51.440;6.914;2022-12-18T07:19:59;-6.50;99.90
16198;DHT22;8206;51.440;6.914;2022-12-18T07:22:28;-6.50;99.90
16198;DHT22;8206;51.440;6.914;2022-12-18T07:24:54;-6.50;99.90
16198;DHT22;8206;51.440;6.914;2022-12-18T07:27:21;-6.50;99.90
16198;DHT22;8206;51.440;6.914;2022-12-18T07:29:48;-6.50;99.90
16198;DHT22;8206;51.440;6.914;2022-12-18T07:32:15;-6.50;99.90
16198;DHT22;8206;51.440;6.914;2022-12-18T07:34:42;-6.50;99.90
16198;DHT22;8206;51.440;6.914;2022-12-18T07:37:09;-6.40;99.90
16198;DHT22;8206;51.440;6.914;2022-12-18T07:39:37;-6.40;99.90
16198;DHT22;8206;51.440;6.914;2022-12-18T07:42:07;-6.30;99.90
16198;DHT22;8206;51.440;6.914;2022-12-18T07:44:51;-6.20;99.90
16198;DHT22;8206;51.440;6.914;2022-12-18T07:47:18;-6.20;99.90
16198;DHT22;8206;51.440;6.914;2022-12-18T07:49:45;-6.10;99.90
16198;DHT22;8206;51.440;6.914;2022-12-18T07:52:11;-6.10;99.90
16198;DHT22;8206;51.440;6.914;2022-12-18T07:54:40;-6.00;99.90
16198;DHT22;8206;51.440;6.914;2022-12-18T07:57:06;-5.90;99.90
16198;DHT22;8206;51.440;6.914;2022-12-18T07:59:33;-5.80;99.90
16198;DHT22;8206;51.440;6.914;2022-12-18T08:02:00;-5.70;99.90
16198;DHT22;8206;51.440;6.914;2022-12-18T08:04:27;-5.60;99.90
16198;DHT22;8206;51.440;6.914;2022-12-18T08:06:53;-5.50;99.90
16198;DHT22;8206;51.440;6.914;2022-12-18T08:09:20;-5.30;99.90
16198;DHT22;8206;51.440;6.914;2022-12-18T08:11:48;-5.00;99.90
16198;DHT22;8206;51.440;6.914;2022-12-18T08:14:15;-4.70;99.90
16198;DHT22;8206;51.440;6.914;2022-12-18T08:16:42;-4.40;99.90
16198;DHT22;8206;51.440;6.914;2022-12-18T08:19:11;-4.20;99.90
16198;DHT22;8206;51.440;6.914;2022-12-18T08:21:41;-4.00;99.90
16198;DHT22;8206;51.440;6.914;2022-12-18T08:24:09;-3.80;99.90
16198;DHT22;8206;51.440;6.914;2022-12-18T08:26:36;-3.50;99.90
16198;DHT22;8206;51.440;6.914;2022-12-18T08:29:04;-3.20;99.90
16198;DHT22;8206;51.440;6.914;2022-12-18T08:31:31;-3.10;99.90
16198;DHT22;8206;51.440;6.914;2022-12-18T08:33:58;-2.90;99.90
16198;DHT22;8206;51.440;6.914;2022-12-18T08:36:25;-2.80;99.90
16198;DHT22;8206;51.440;6.914;2022-12-18T08:38:52;-2.70;99.90
16198;DHT22;8206;51.440;6.914;2022-12-18T08:41:19;-2.60;99.90
16198;DHT22;8206;51.440;6.914;2022-12-18T08:43:46;-2.60;99.90
16198;DHT22;8206;51.440;6.914;2022-12-18T08:46:35;-2.50;99.90
16198;DHT22;8206;51.440;6.914;2022-12-18T08:49:03;-2.30;99.90
16198;DHT22;8206;51.440;6.914;2022-12-18T08:51:30;-2.30;99.90
16198;DHT22;8206;51.440;6.914;2022-12-18T08:53:56;-2.10;99.90
16198;DHT22;8206;51.440;6.914;2022-12-18T08:56:23;-1.80;99.90
16198;DHT22;8206;51.440;6.914;2022-12-18T08:58:52;-1.70;99.90
16198;DHT22;8206;51.440;6.914;2022-12-18T09:01:19;-1.60;99.90
16198;DHT22;8206;51.440;6.914;2022-12-18T09:03:50;-1.60;99.90
16198;DHT22;8206;51.440;6.914;2022-12-18T09:06:21;-1.50;99.90
16198;DHT22;8206;51.440;6.914;2022-12-18T09:08:48;-1.40;99.90
16198;DHT22;8206;51.440;6.914;2022-12-18T09:11:19;-1.40;99.90
16198;DHT22;8206;51.440;6.914;2022-12-18T09:13:46;-1.20;99.90
16198;DHT22;8206;51.440;6.914;2022-12-18T09:16:13;-1.10;99.90
16198;DHT22;8206;51.440;6.914;2022-12-18T09:18:39;-1.00;99.90
16198;DHT22;8206;51.440;6.914;2022-12-18T09:21:13;-0.90;99.90
16198;DHT22;8206;51.440;6.914;2022-12-18T09:23:40;-0.80;99.90
16198;DHT22;8206;51.440;6.914;2022-12-18T09:26:07;-0.70;99.90
16198;DHT22;8206;51.440;6.914;2022-12-18T09:28:34;-0.70;99.90
16198;DHT22;8206;51.440;6.914;2022-12-18T09:31:04;-0.60;99.90
16198;DHT22;8206;51.440;6.914;2022-12-18T09:33:32;-0.40;99.90
16198;DHT22;8206;51.440;6.914;2022-12-18T09:36:01;-0.30;99.90
16198;DHT22;8206;51.440;6.914;2022-12-18T09:38:29;-0.30;99.90
16198;DHT22;8206;51.440;6.914;2022-12-18T09:40:59;-0.20;99.90
16198;DHT22;8206;51.440;6.914;2022-12-18T09:43:33;-0.20;99.90
16198;DHT22;8206;51.440;6.914;2022-12-18T09:46:06;-0.10;99.90
16198;DHT22;8206;51.440;6.914;2022-12-18T09:48:36;0.00;99.90
16198;DHT22;8206;51.440;6.914;2022-12-18T09:51:11;0.10;99.90
16198;DHT22;8206;51.440;6.914;2022-12-18T09:53:45;0.20;99.90
16198;DHT22;8206;51.440;6.914;2022-12-18T09:56:16;0.30;99.90
16198;DHT22;8206;51.440;6.914;2022-12-18T09:58:48;0.40;99.90
16198;DHT22;8206;51.440;6.914;2022-12-18T10:01:21;0.50;99.90
16198;DHT22;8206;51.440;6.914;2022-12-18T10:03:48;0.50;99.90
16198;DHT22;8206;51.440;6.914;2022-12-18T10:06:22;0.60;99.90
16198;DHT22;8206;51.440;6.914;2022-12-18T10:08:56;0.70;99.90
16198;DHT22;8206;51.440;6.914;2022-12-18T10:11:34;0.80;99.90
16198;DHT22;8206;51.440;6.914;2022-12-18T10:14:09;0.90;99.90
16198;DHT22;8206;51.440;6.914;2022-12-18T10:16:48;0.90;99.90
16198;DHT22;8206;51.440;6.914;2022-12-18T10:19:33;1.00;99.90
16198;DHT22;8206;51.440;6.914;2022-12-18T10:22:12;1.10;99.90
16198;DHT22;8206;51.440;6.914;2022-12-18T10:24:45;1.10;99.90
16198;DHT22;8206;51.440;6.914;2022-12-18T10:27:16;1.20;99.90
16198;DHT22;8206;51.440;6.914;2022-12-18T10:29:43;1.40;99.90
16198;DHT22;8206;51.440;6.914;2022-12-18T10:32:14;1.40;99.90
16198;DHT22;8206;51.440;6.914;2022-12-18T10:34:45;1.60;99.90
16198;DHT22;8206;51.440;6.914;2022-12-18T10:37:16;1.60;99.90
16198;DHT22;8206;51.440;6.914;2022-12-18T10:39:46;1.70;99.90
16198;DHT22;8206;51.440;6.914;2022-12-18T10:42:17;1.70;99.90
16198;DHT22;8206;51.440;6.914;2022-12-18T10:44:44;1.70;99.90
16198;DHT22;8206;51.440;6.914;2022-12-18T10:47:15;1.80;99.90
16198;DHT22;8206;51.440;6.914;2022-12-18T10:49:49;1.90;99.90
16198;DHT22;8206;51.440;6.914;2022-12-18T10:52:18;1.90;99.90
16198;DHT22;8206;51.440;6.914;2022-12-18T10:54:51;1.90;99.90
16198;DHT22;8206;51.440;6.914;2022-12-18T10:57:32;1.90;99.90
16198;DHT22;8206;51.440;6.914;2022-12-18T11:00:19;2.00;99.90
16198;DHT22;8206;51.440;6.914;2022-12-18T11:02:46;2.00;99.90
16198;DHT22;8206;51.440;6.914;2022-12-18T11:05:28;1.90;99.90
16198;DHT22;8206;51.440;6.914;2022-12-18T11:07:56;2.00;99.90
16198;DHT22;8206;51.440;6.914;2022-12-18T11:10:28;2.00;99.90
16198;DHT22;8206;51.440;6.914;2022-12-18T11:12:55;2.00;99.90
16198;DHT22;8206;51.440;6.914;2022-12-18T11:15:26;2.10;99.90
16198;DHT22;8206;51.440;6.914;2022-12-18T11:17:55;2.20;99.90
16198;DHT22;8206;51.440;6.914;2022-12-18T11:20:29;2.20;99.90
16198;DHT22;8206;51.440;6.914;2022-12-18T11:22:59;2.30;99.90
16198;DHT22;8206;51.440;6.914;2022-12-18T11:25:32;2.40;99.90
16198;DHT22;8206;51.440;6.914;2022-12-18T11:28:01;2.40;99.90
16198;DHT22;8206;51.440;6.914;2022-12-18T11:30:30;2.40;99.90
16198;DHT22;8206;51.440;6.914;2022-12-18T11:33:04;2.40;99.90
16198;DHT22;8206;51.440;6.914;2022-12-18T11:35:47;2.60;99.90
16198;DHT22;8206;51.440;6.914;2022-12-18T11:38:20;2.60;99.90
16198;DHT22;8206;51.440;6.914;2022-12-18T11:40:55;2.60;99.90
16198;DHT22;8206;51.440;6.914;2022-12-18T11:43:27;2.60;99.90
16198;DHT22;8206;51.440;6.914;2022-12-18T11:45:59;2.60;99.90
16198;DHT22;8206;51.440;6.914;2022-12-18T11:48:32;2.70;99.90
16198;DHT22;8206;51.440;6.914;2022-12-18T11:51:01;2.60;99.90
16198;DHT22;8206;51.440;6.914;2022-12-18T11:53:30;2.60;99.90
16198;DHT22;8206;51.440;6.914;2022-12-18T11:56:05;2.60;99.90
16198;DHT22;8206;51.440;6.914;2022-12-18T11:58:43;2.60;99.90
16198;DHT22;8206;51.440;6.914;2022-12-18T12:01:19;2.70;99.90
16198;DHT22;8206;51.440;6.914;2022-12-18T12:04:22;2.80;99.90
16198;DHT22;8206;51.440;6.914;2022-12-18T12:06:59;2.90;99.90
16198;DHT22;8206;51.440;6.914;2022-12-18T12:09:34;3.00;99.90
16198;DHT22;8206;51.440;6.914;2022-12-18T12:12:21;3.00;99.90
16198;DHT22;8206;51.440;6.914;2022-12-18T12:14:54;3.10;99.90
16198;DHT22;8206;51.440;6.914;2022-12-18T12:17:32;3.10;99.90
16198;DHT22;8206;51.440;6.914;2022-12-18T12:20:06;3.00;99.90
16198;DHT22;8206;51.440;6.914;2022-12-18T12:22:42;3.00;99.90
16198;DHT22;8206;51.440;6.914;2022-12-18T12:25:21;3.00;99.90
16198;DHT22;8206;51.440;6.914;2022-12-18T12:28:01;2.90;99.90
16198;DHT22;8206;51.440;6.914;2022-12-18T12:30:35;2.90;99.90
16198;DHT22;8206;51.440;6.914;2022-12-18T12:33:15;2.70;99.90
16198;DHT22;8206;51.440;6.914;2022-12-18T12:35:51;2.70;99.90
16198;DHT22;8206;51.440;6.914;2022-12-18T12:38:22;2.70;99.90
16198;DHT22;8206;51.440;6.914;2022-12-18T12:40:56;2.80;99.90
16198;DHT22;8206;51.440;6.914;2022-12-18T12:43:35;2.70;99.90
16198;DHT22;8206;51.440;6.914;2022-12-18T12:46:04;2.70;99.90
16198;DHT22;8206;51.440;6.914;2022-12-18T12:48:40;2.50;99.90
16198;DHT22;8206;51.440;6.914;2022-12-18T12:51:12;2.50;99.90
16198;DHT22;8206;51.440;6.914;2022-12-18T12:53:40;2.40;99.90
16198;DHT22;8206;51.440;6.914;2022-12-18T12:56:10;2.30;99.90
16198;DHT22;8206;51.440;6.914;2022-12-18T12:58:45;2.30;99.90
16198;DHT22;8206;51.440;6.914;2022-12-18T13:01:22;2.20;99.90
16198;DHT22;8206;51.440;6.914;2022-12-18T13:03:57;2.30;99.90
16198;DHT22;8206;51.440;6.914;2022-12-18T13:06:35;2.30;99.90
16198;DHT22;8206;51.440;6.914;2022-12-18T13:09:03;2.20;99.90
16198;DHT22;8206;51.440;6.914;2022-12-18T13:11:41;2.20;99.90
16198;DHT22;8206;51.440;6.914;2022-12-18T13:14:32;2.10;99.90
16198;DHT22;8206;51.440;6.914;2022-12-18T13:17:24;2.10;99.90
16198;DHT22;8206;51.440;6.914;2022-12-18T13:20:13;2.10;99.90
16198;DHT22;8206;51.440;6.914;2022-12-18T13:22:43;2.10;99.90
16198;DHT22;8206;51.440;6.914;2022-12-18T13:25:34;2.10;99.90
16198;DHT22;8206;51.440;6.914;2022-12-18T13:28:14;2.00;99.90
16198;DHT22;8206;51.440;6.914;2022-12-18T13:30:54;2.00;99.90
16198;DHT22;8206;51.440;6.914;2022-12-18T13:33:42;2.00;99.90
16198;DHT22;8206;51.440;6.914;2022-12-18T13:36:14;1.90;99.90
16198;DHT22;8206;51.440;6.914;2022-12-18T13:38:42;1.90;99.90
16198;DHT22;8206;51.440;6.914;2022-12-18T13:41:27;1.80;99.90
16198;DHT22;8206;51.440;6.914;2022-12-18T13:43:55;1.80;99.90
16198;DHT22;8206;51.440;6.914;2022-12-18T13:46:27;1.80;99.90
16198;DHT22;8206;51.440;6.914;2022-12-18T13:48:57;1.70;99.90
16198;DHT22;8206;51.440;6.914;2022-12-18T13:51:26;1.70;99.90
16198;DHT22;8206;51.440;6.914;2022-12-18T13:53:55;1.70;99.90
16198;DHT22;8206;51.440;6.914;2022-12-18T13:56:25;1.70;99.90
16198;DHT22;8206;51.440;6.914;2022-12-18T13:59:17;1.70;99.90
16198;DHT22;8206;51.440;6.914;2022-12-18T14:01:52;1.80;99.90
16198;DHT22;8206;51.440;6.914;2022-12-18T14:04:23;1.80;99.90
16198;DHT22;8206;51.440;6.914;2022-12-18T14:06:52;1.80;99.90
16198;DHT22;8206;51.440;6.914;2022-12-18T14:09:23;1.80;99.90
16198;DHT22;8206;51.440;6.914;2022-12-18T14:11:51;1.80;99.90
16198;DHT22;8206;51.440;6.914;2022-12-18T14:14:41;1.70;99.90
16198;DHT22;8206;51.440;6.914;2022-12-18T14:17:10;1.70;99.90
16198;DHT22;8206;51.440;6.914;2022-12-18T14:19:41;1.70;99.90
16198;DHT22;8206;51.440;6.914;2022-12-18T14:22:14;1.60;99.90
16198;DHT22;8206;51.440;6.914;2022-12-18T14:24:41;1.60;99.90
16198;DHT22;8206;51.440;6.914;2022-12-18T14:27:20;1.60;99.90
16198;DHT22;8206;51.440;6.914;2022-12-18T14:29:47;1.70;99.90
16198;DHT22;8206;51.440;6.914;2022-12-18T14:32:16;1.60;99.90
16198;DHT22;8206;51.440;6.914;2022-12-18T14:34:44;1.60;99.90
16198;DHT22;8206;51.440;6.914;2022-12-18T14:37:12;1.60;99.90
16198;DHT22;8206;51.440;6.914;2022-12-18T14:39:40;1.60;99.90
16198;DHT22;8206;51.440;6.914;2022-12-18T14:42:10;1.60;99.90
16198;DHT22;8206;51.440;6.914;2022-12-18T14:44:37;1.50;99.90
16198;DHT22;8206;51.440;6.914;2022-12-18T14:47:04;1.50;99.90
16198;DHT22;8206;51.440;6.914;2022-12-18T14:49:33;1.50;99.90
16198;DHT22;8206;51.440;6.914;2022-12-18T14:52:03;1.50;99.90
16198;DHT22;8206;51.440;6.914;2022-12-18T14:54:31;1.50;99.90
16198;DHT22;8206;51.440;6.914;2022-12-18T14:57:00;1.50;99.90
16198;DHT22;8206;51.440;6.914;2022-12-18T14:59:28;1.50;99.90
16198;DHT22;8206;51.440;6.914;2022-12-18T15:02:02;1.50;99.90
16198;DHT22;8206;51.440;6.914;2022-12-18T15:04:33;1.40;99.90
16198;DHT22;8206;51.440;6.914;2022-12-18T15:07:12;1.40;99.90
16198;DHT22;8206;51.440;6.914;2022-12-18T15:09:40;1.40;99.90
16198;DHT22;8206;51.440;6.914;2022-12-18T15:12:26;1.40;99.90
16198;DHT22;8206;51.440;6.914;2022-12-18T15:14:54;1.40;99.90
16198;DHT22;8206;51.440;6.914;2022-12-18T15:17:22;1.40;99.90
16198;DHT22;8206;51.440;6.914;2022-12-18T15:19:53;1.30;99.90
16198;DHT22;8206;51.440;6.914;2022-12-18T15:22:24;1.30;99.90
16198;DHT22;8206;51.440;6.914;2022-12-18T15:24:51;1.20;99.90
16198;DHT22;8206;51.440;6.914;2022-12-18T15:27:24;1.20;99.90
16198;DHT22;8206;51.440;6.914;2022-12-18T15:30:17;1.20;99.90
16198;DHT22;8206;51.440;6.914;2022-12-18T15:32:45;1.20;99.90
16198;DHT22;8206;51.440;6.914;2022-12-18T15:35:17;1.30;99.90
16198;DHT22;8206;51.440;6.914;2022-12-18T15:37:44;1.20;99.90
16198;DHT22;8206;51.440;6.914;2022-12-18T15:40:15;1.10;99.90
16198;DHT22;8206;51.440;6.914;2022-12-18T15:42:43;1.10;99.90
16198;DHT22;8206;51.440;6.914;2022-12-18T15:45:28;1.10;99.90
16198;DHT22;8206;51.440;6.914;2022-12-18T15:47:55;1.20;99.90
16198;DHT22;8206;51.440;6.914;2022-12-18T15:50:24;1.20;99.90
16198;DHT22;8206;51.440;6.914;2022-12-18T15:52:52;1.10;99.90
16198;DHT22;8206;51.440;6.914;2022-12-18T15:55:21;1.20;99.90
16198;DHT22;8206;51.440;6.914;2022-12-18T15:58:07;1.10;99.90
16198;DHT22;8206;51.440;6.914;2022-12-18T16:00:35;1.10;99.90
16198;DHT22;8206;51.440;6.914;2022-12-18T16:03:03;1.00;99.90
16198;DHT22;8206;51.440;6.914;2022-12-18T16:05:31;1.00;99.90
16198;DHT22;8206;51.440;6.914;2022-12-18T16:07:58;1.00;99.90
16198;DHT22;8206;51.440;6.914;2022-12-18T16:10:26;1.00;99.90
16198;DHT22;8206;51.440;6.914;2022-12-18T16:12:53;1.00;99.90
16198;DHT22;8206;51.440;6.914;2022-12-18T16:15:20;0.90;99.90